Portada
METAR-TAF:

METAR-TAF

Aeroports :

Aeroport de Rabat

Rabat, Marroc

latitud: 34-03N, longitud: 006-46W, altitud: 84 m

Observació

L'informe es va fer fa 8 minuts, a les 04:54 UTC
Vent 2 kt amb direcció variable
Temperatura 21°C
Humitat 88%
Pressió 1016 hPa
Visibilitat: 0400 m
Cel ennuvolat a una alçada de 600 ft
boira

METAR: GMME 220454Z VRB02KT 0400 R21/0400V0700D FG BKN006 21/19 Q1016 TEMPO 0200 FG

Hora: 06:02 (05:02 UTC)

Pronòstic

L'informe es va fer fa 6 hores i 2 minuts, a les 23:00 UTC
Pronòstic vàlid del 22 a les 00 UTC al 23 a les 06 UTC
Vent 10 kt del Nord-Oest
Visibilitat: 8000 m
Temporalment
l' 22 a les 00 UTC al 22 a les 10 UTC
Vent 2 kt amb direcció variable
Visibilitat: 3000 m
Núvols disperses a una alçada de 800 ft
Cel ennuvolat a una alçada de 1600 ft
boirina

TAF: GMME 212300Z 2200/2306 32010KT 8000 NSC TEMPO 2200/2210 VRB02KT 3000 BR SCT008 BKN016

Observacions i pronòstics meteorològics de més de 4000 aeroports (METAR i TAF).

Les estacions disponibles són els punts grocs i vermells al mapa.

Posi el ratolí al punt desitjat per veure el nom de l'estació.

Feu clic per veure les observacions i els pronòstics meteorològics.

Per canviar el mapa: feu clic els botons verds amb una creu de color negre per apropar; al botó verd amb un guió per allunyar la imatge; o en les fletxes verdes per a mapes adjacents.


METAR-TAF: